sensor_id;sensor_type;location;lat;lon;timestamp;temperature;humidity
10433;DHT22;5263;48.680;9.004;2023-04-03T00:00:02;2.70;99.90
10433;DHT22;5263;48.680;9.004;2023-04-03T00:02:28;2.80;99.90
10433;DHT22;5263;48.680;9.004;2023-04-03T00:04:54;3.10;99.90
10433;DHT22;5263;48.680;9.004;2023-04-03T00:07:19;3.50;99.90
10433;DHT22;5263;48.680;9.004;2023-04-03T00:09:45;2.90;99.90
10433;DHT22;5263;48.680;9.004;2023-04-03T00:12:10;3.00;99.90
10433;DHT22;5263;48.680;9.004;2023-04-03T00:14:36;2.80;99.90
10433;DHT22;5263;48.680;9.004;2023-04-03T00:17:02;2.80;99.90
10433;DHT22;5263;48.680;9.004;2023-04-03T00:19:28;2.70;99.90
10433;DHT22;5263;48.680;9.004;2023-04-03T00:21:53;2.70;99.90
10433;DHT22;5263;48.680;9.004;2023-04-03T00:24:19;2.90;99.90
10433;DHT22;5263;48.680;9.004;2023-04-03T00:26:44;2.90;99.90
10433;DHT22;5263;48.680;9.004;2023-04-03T00:29:10;2.90;99.90
10433;DHT22;5263;48.680;9.004;2023-04-03T00:31:36;2.80;99.90
10433;DHT22;5263;48.680;9.004;2023-04-03T00:34:01;2.90;99.90
10433;DHT22;5263;48.680;9.004;2023-04-03T00:36:27;2.70;99.90
10433;DHT22;5263;48.680;9.004;2023-04-03T00:38:52;2.70;99.90
10433;DHT22;5263;48.680;9.004;2023-04-03T00:41:18;2.90;99.90
10433;DHT22;5263;48.680;9.004;2023-04-03T00:43:44;2.80;99.90
10433;DHT22;5263;48.680;9.004;2023-04-03T00:46:10;2.90;99.90
10433;DHT22;5263;48.680;9.004;2023-04-03T00:48:41;2.70;99.90
10433;DHT22;5263;48.680;9.004;2023-04-03T00:51:13;3.00;99.90
10433;DHT22;5263;48.680;9.004;2023-04-03T00:53:43;2.80;99.90
10433;DHT22;5263;48.680;9.004;2023-04-03T00:56:13;2.70;99.90
10433;DHT22;5263;48.680;9.004;2023-04-03T00:58:44;2.70;99.90
10433;DHT22;5263;48.680;9.004;2023-04-03T01:01:14;2.60;99.90
10433;DHT22;5263;48.680;9.004;2023-04-03T01:03:41;2.80;99.90
10433;DHT22;5263;48.680;9.004;2023-04-03T01:06:07;2.90;99.90
10433;DHT22;5263;48.680;9.004;2023-04-03T01:08:33;2.70;99.90
10433;DHT22;5263;48.680;9.004;2023-04-03T01:10:59;2.70;99.90
10433;DHT22;5263;48.680;9.004;2023-04-03T01:13:30;2.50;99.90
10433;DHT22;5263;48.680;9.004;2023-04-03T01:15:57;2.50;99.90
10433;DHT22;5263;48.680;9.004;2023-04-03T01:18:26;2.70;99.90
10433;DHT22;5263;48.680;9.004;2023-04-03T01:21:13;2.60;99.90
10433;DHT22;5263;48.680;9.004;2023-04-03T01:26:35;2.70;99.90
10433;DHT22;5263;48.680;9.004;2023-04-03T01:29:01;2.80;99.90
10433;DHT22;5263;48.680;9.004;2023-04-03T01:31:54;2.80;99.90
10433;DHT22;5263;48.680;9.004;2023-04-03T01:34:20;2.90;99.90
10433;DHT22;5263;48.680;9.004;2023-04-03T01:36:46;2.70;99.90
10433;DHT22;5263;48.680;9.004;2023-04-03T01:39:12;2.90;99.90
10433;DHT22;5263;48.680;9.004;2023-04-03T01:41:37;3.00;99.90
10433;DHT22;5263;48.680;9.004;2023-04-03T01:44:03;2.90;99.90
10433;DHT22;5263;48.680;9.004;2023-04-03T01:46:29;2.80;99.90
10433;DHT22;5263;48.680;9.004;2023-04-03T01:48:55;2.80;99.90
10433;DHT22;5263;48.680;9.004;2023-04-03T01:51:21;2.70;99.90
10433;DHT22;5263;48.680;9.004;2023-04-03T01:53:46;3.30;99.90
10433;DHT22;5263;48.680;9.004;2023-04-03T01:56:12;2.70;99.90
10433;DHT22;5263;48.680;9.004;2023-04-03T01:58:38;2.50;99.90
10433;DHT22;5263;48.680;9.004;2023-04-03T02:01:04;2.50;99.90
10433;DHT22;5263;48.680;9.004;2023-04-03T02:03:29;2.50;99.90
10433;DHT22;5263;48.680;9.004;2023-04-03T02:05:56;2.40;99.90
10433;DHT22;5263;48.680;9.004;2023-04-03T02:08:22;2.30;99.90
10433;DHT22;5263;48.680;9.004;2023-04-03T02:10:48;2.50;99.90
10433;DHT22;5263;48.680;9.004;2023-04-03T02:13:14;2.70;99.90
10433;DHT22;5263;48.680;9.004;2023-04-03T02:15:40;2.50;99.90
10433;DHT22;5263;48.680;9.004;2023-04-03T02:18:06;2.40;99.90
10433;DHT22;5263;48.680;9.004;2023-04-03T02:20:32;2.30;99.90
10433;DHT22;5263;48.680;9.004;2023-04-03T02:23:00;2.20;99.90
10433;DHT22;5263;48.680;9.004;2023-04-03T02:25:25;2.10;99.90
10433;DHT22;5263;48.680;9.004;2023-04-03T02:27:51;2.20;99.90
10433;DHT22;5263;48.680;9.004;2023-04-03T02:30:17;2.30;99.90
10433;DHT22;5263;48.680;9.004;2023-04-03T02:32:43;2.10;99.90
10433;DHT22;5263;48.680;9.004;2023-04-03T02:35:10;2.10;99.90
10433;DHT22;5263;48.680;9.004;2023-04-03T02:37:35;2.20;99.90
10433;DHT22;5263;48.680;9.004;2023-04-03T02:40:01;2.10;99.90
10433;DHT22;5263;48.680;9.004;2023-04-03T02:42:27;2.00;99.90
10433;DHT22;5263;48.680;9.004;2023-04-03T02:44:53;2.10;99.90
10433;DHT22;5263;48.680;9.004;2023-04-03T02:47:18;2.00;99.90
10433;DHT22;5263;48.680;9.004;2023-04-03T02:49:44;1.90;99.90
10433;DHT22;5263;48.680;9.004;2023-04-03T02:52:12;2.00;99.90
10433;DHT22;5263;48.680;9.004;2023-04-03T02:54:38;2.10;99.90
10433;DHT22;5263;48.680;9.004;2023-04-03T02:57:03;2.10;99.90
10433;DHT22;5263;48.680;9.004;2023-04-03T02:59:29;2.00;99.90
10433;DHT22;5263;48.680;9.004;2023-04-03T03:01:55;2.00;99.90
10433;DHT22;5263;48.680;9.004;2023-04-03T03:04:21;2.10;99.90
10433;DHT22;5263;48.680;9.004;2023-04-03T03:06:47;2.10;99.90
10433;DHT22;5263;48.680;9.004;2023-04-03T03:09:13;2.20;99.90
10433;DHT22;5263;48.680;9.004;2023-04-03T03:11:39;2.20;99.90
10433;DHT22;5263;48.680;9.004;2023-04-03T03:14:04;2.10;99.90
10433;DHT22;5263;48.680;9.004;2023-04-03T03:16:30;2.00;99.90
10433;DHT22;5263;48.680;9.004;2023-04-03T03:18:56;1.90;99.90
10433;DHT22;5263;48.680;9.004;2023-04-03T03:21:21;2.00;99.90
10433;DHT22;5263;48.680;9.004;2023-04-03T03:23:47;2.40;99.90
10433;DHT22;5263;48.680;9.004;2023-04-03T03:26:13;2.60;99.90
10433;DHT22;5263;48.680;9.004;2023-04-03T03:28:39;2.50;99.90
10433;DHT22;5263;48.680;9.004;2023-04-03T03:31:06;2.30;99.90
10433;DHT22;5263;48.680;9.004;2023-04-03T03:33:32;2.30;99.90
10433;DHT22;5263;48.680;9.004;2023-04-03T03:35:57;2.30;99.90
10433;DHT22;5263;48.680;9.004;2023-04-03T03:38:23;2.30;99.90
10433;DHT22;5263;48.680;9.004;2023-04-03T03:40:49;2.10;99.90
10433;DHT22;5263;48.680;9.004;2023-04-03T03:43:16;2.30;99.90
10433;DHT22;5263;48.680;9.004;2023-04-03T03:45:42;2.20;99.90
10433;DHT22;5263;48.680;9.004;2023-04-03T03:48:08;2.30;99.90
10433;DHT22;5263;48.680;9.004;2023-04-03T03:50:33;2.20;99.90
10433;DHT22;5263;48.680;9.004;2023-04-03T03:52:59;2.10;99.90
10433;DHT22;5263;48.680;9.004;2023-04-03T03:55:25;2.10;99.90
10433;DHT22;5263;48.680;9.004;2023-04-03T03:57:50;1.90;99.90
10433;DHT22;5263;48.680;9.004;2023-04-03T04:00:16;2.10;99.90
10433;DHT22;5263;48.680;9.004;2023-04-03T04:02:42;2.20;99.90
10433;DHT22;5263;48.680;9.004;2023-04-03T04:05:08;2.30;99.90
10433;DHT22;5263;48.680;9.004;2023-04-03T04:07:34;2.30;99.90
10433;DHT22;5263;48.680;9.004;2023-04-03T04:09:59;2.40;99.90
10433;DHT22;5263;48.680;9.004;2023-04-03T04:12:25;2.50;99.90
10433;DHT22;5263;48.680;9.004;2023-04-03T04:14:50;2.70;99.90
10433;DHT22;5263;48.680;9.004;2023-04-03T04:17:16;2.50;99.90
10433;DHT22;5263;48.680;9.004;2023-04-03T04:19:42;2.80;99.90
10433;DHT22;5263;48.680;9.004;2023-04-03T04:22:07;2.70;99.90
10433;DHT22;5263;48.680;9.004;2023-04-03T04:24:33;2.90;99.90
10433;DHT22;5263;48.680;9.004;2023-04-03T04:26:58;2.30;99.90
10433;DHT22;5263;48.680;9.004;2023-04-03T04:29:24;2.50;99.90
10433;DHT22;5263;48.680;9.004;2023-04-03T04:31:50;2.60;99.90
10433;DHT22;5263;48.680;9.004;2023-04-03T04:34:15;2.50;99.90
10433;DHT22;5263;48.680;9.004;2023-04-03T04:36:41;2.30;99.90
10433;DHT22;5263;48.680;9.004;2023-04-03T04:39:07;2.30;99.90
10433;DHT22;5263;48.680;9.004;2023-04-03T04:41:33;2.40;99.90
10433;DHT22;5263;48.680;9.004;2023-04-03T04:43:58;2.30;99.90
10433;DHT22;5263;48.680;9.004;2023-04-03T04:46:24;2.60;99.90
10433;DHT22;5263;48.680;9.004;2023-04-03T04:48:50;2.50;99.90
10433;DHT22;5263;48.680;9.004;2023-04-03T04:51:16;2.60;99.90
10433;DHT22;5263;48.680;9.004;2023-04-03T04:53:42;2.50;99.90
10433;DHT22;5263;48.680;9.004;2023-04-03T04:56:08;2.40;99.90
10433;DHT22;5263;48.680;9.004;2023-04-03T04:58:34;2.40;99.90
10433;DHT22;5263;48.680;9.004;2023-04-03T05:01:05;2.30;99.90
10433;DHT22;5263;48.680;9.004;2023-04-03T05:03:31;2.40;99.90
10433;DHT22;5263;48.680;9.004;2023-04-03T05:05:56;2.20;99.90
10433;DHT22;5263;48.680;9.004;2023-04-03T05:08:22;2.20;99.90
10433;DHT22;5263;48.680;9.004;2023-04-03T05:10:48;2.40;99.90
10433;DHT22;5263;48.680;9.004;2023-04-03T05:13:14;2.30;99.90
10433;DHT22;5263;48.680;9.004;2023-04-03T05:15:40;2.50;99.90
10433;DHT22;5263;48.680;9.004;2023-04-03T05:18:06;2.70;99.90
10433;DHT22;5263;48.680;9.004;2023-04-03T05:20:32;2.80;99.90
10433;DHT22;5263;48.680;9.004;2023-04-03T05:22:58;2.80;99.90
10433;DHT22;5263;48.680;9.004;2023-04-03T05:25:23;2.50;99.90
10433;DHT22;5263;48.680;9.004;2023-04-03T05:27:50;2.50;99.90
10433;DHT22;5263;48.680;9.004;2023-04-03T05:30:15;2.60;99.90
10433;DHT22;5263;48.680;9.004;2023-04-03T05:32:41;2.60;99.90
10433;DHT22;5263;48.680;9.004;2023-04-03T05:35:07;2.50;99.90
10433;DHT22;5263;48.680;9.004;2023-04-03T05:37:33;2.80;99.90
10433;DHT22;5263;48.680;9.004;2023-04-03T05:39:59;2.90;99.90
10433;DHT22;5263;48.680;9.004;2023-04-03T05:42:25;3.00;99.90
10433;DHT22;5263;48.680;9.004;2023-04-03T05:44:50;3.10;99.90
10433;DHT22;5263;48.680;9.004;2023-04-03T05:47:17;2.80;99.90
10433;DHT22;5263;48.680;9.004;2023-04-03T05:49:43;3.00;99.90
10433;DHT22;5263;48.680;9.004;2023-04-03T05:52:28;3.10;99.90
10433;DHT22;5263;48.680;9.004;2023-04-03T05:54:55;2.90;99.90
10433;DHT22;5263;48.680;9.004;2023-04-03T05:57:20;3.30;99.90
10433;DHT22;5263;48.680;9.004;2023-04-03T05:59:46;3.10;99.90
10433;DHT22;5263;48.680;9.004;2023-04-03T06:02:15;3.20;99.90
10433;DHT22;5263;48.680;9.004;2023-04-03T06:04:41;3.10;99.90
10433;DHT22;5263;48.680;9.004;2023-04-03T06:07:09;3.10;99.90
10433;DHT22;5263;48.680;9.004;2023-04-03T06:09:35;3.10;99.90
10433;DHT22;5263;48.680;9.004;2023-04-03T06:12:01;3.00;99.90
10433;DHT22;5263;48.680;9.004;2023-04-03T06:14:27;3.10;99.90
10433;DHT22;5263;48.680;9.004;2023-04-03T06:16:53;3.40;99.90
10433;DHT22;5263;48.680;9.004;2023-04-03T06:19:19;3.10;99.90
10433;DHT22;5263;48.680;9.004;2023-04-03T06:21:45;3.20;99.90
10433;DHT22;5263;48.680;9.004;2023-04-03T06:24:14;3.10;99.90
10433;DHT22;5263;48.680;9.004;2023-04-03T06:26:41;2.90;99.90
10433;DHT22;5263;48.680;9.004;2023-04-03T06:29:06;3.20;99.90
10433;DHT22;5263;48.680;9.004;2023-04-03T06:31:32;3.10;99.90
10433;DHT22;5263;48.680;9.004;2023-04-03T06:33:58;3.50;99.90
10433;DHT22;5263;48.680;9.004;2023-04-03T06:36:24;3.30;99.90
10433;DHT22;5263;48.680;9.004;2023-04-03T06:38:50;3.20;99.90
10433;DHT22;5263;48.680;9.004;2023-04-03T06:41:16;3.20;99.90
10433;DHT22;5263;48.680;9.004;2023-04-03T06:43:45;3.20;99.90
10433;DHT22;5263;48.680;9.004;2023-04-03T06:46:14;3.40;99.90
10433;DHT22;5263;48.680;9.004;2023-04-03T06:48:40;3.40;99.90
10433;DHT22;5263;48.680;9.004;2023-04-03T06:51:22;3.50;99.90
10433;DHT22;5263;48.680;9.004;2023-04-03T06:53:50;3.60;99.90
10433;DHT22;5263;48.680;9.004;2023-04-03T06:56:16;3.20;99.90
10433;DHT22;5263;48.680;9.004;2023-04-03T06:58:42;3.20;99.90
10433;DHT22;5263;48.680;9.004;2023-04-03T07:01:09;3.50;99.90
10433;DHT22;5263;48.680;9.004;2023-04-03T07:03:36;3.80;99.90
10433;DHT22;5263;48.680;9.004;2023-04-03T07:06:02;3.90;99.90
10433;DHT22;5263;48.680;9.004;2023-04-03T07:08:28;3.90;99.90
10433;DHT22;5263;48.680;9.004;2023-04-03T07:10:54;3.90;99.90
10433;DHT22;5263;48.680;9.004;2023-04-03T07:13:20;3.70;99.90
10433;DHT22;5263;48.680;9.004;2023-04-03T07:15:45;3.80;99.90
10433;DHT22;5263;48.680;9.004;2023-04-03T07:18:11;4.00;99.90
10433;DHT22;5263;48.680;9.004;2023-04-03T07:20:38;4.30;99.90
10433;DHT22;5263;48.680;9.004;2023-04-03T07:23:03;4.50;99.90
10433;DHT22;5263;48.680;9.004;2023-04-03T07:25:29;3.90;99.90
10433;DHT22;5263;48.680;9.004;2023-04-03T07:27:55;3.80;99.90
10433;DHT22;5263;48.680;9.004;2023-04-03T07:30:21;4.10;99.90
10433;DHT22;5263;48.680;9.004;2023-04-03T07:32:47;4.40;99.90
10433;DHT22;5263;48.680;9.004;2023-04-03T07:35:13;4.50;99.90
10433;DHT22;5263;48.680;9.004;2023-04-03T07:37:38;4.00;99.90
10433;DHT22;5263;48.680;9.004;2023-04-03T07:40:05;4.40;99.90
10433;DHT22;5263;48.680;9.004;2023-04-03T07:42:31;4.30;99.90
10433;DHT22;5263;48.680;9.004;2023-04-03T07:44:57;4.40;99.90
10433;DHT22;5263;48.680;9.004;2023-04-03T07:47:22;4.50;99.90
10433;DHT22;5263;48.680;9.004;2023-04-03T07:49:48;4.80;99.90
10433;DHT22;5263;48.680;9.004;2023-04-03T07:52:14;4.60;99.90
10433;DHT22;5263;48.680;9.004;2023-04-03T07:54:41;4.90;99.90
10433;DHT22;5263;48.680;9.004;2023-04-03T07:57:06;5.50;99.90
10433;DHT22;5263;48.680;9.004;2023-04-03T07:59:32;5.10;99.90
10433;DHT22;5263;48.680;9.004;2023-04-03T08:01:58;5.10;99.90
10433;DHT22;5263;48.680;9.004;2023-04-03T08:04:23;4.90;99.90
10433;DHT22;5263;48.680;9.004;2023-04-03T08:06:50;5.20;99.90
10433;DHT22;5263;48.680;9.004;2023-04-03T08:09:16;5.20;99.90
10433;DHT22;5263;48.680;9.004;2023-04-03T08:11:42;5.40;99.90
10433;DHT22;5263;48.680;9.004;2023-04-03T08:14:07;5.50;99.90
10433;DHT22;5263;48.680;9.004;2023-04-03T08:16:33;5.70;99.90
10433;DHT22;5263;48.680;9.004;2023-04-03T08:18:59;5.80;99.90
10433;DHT22;5263;48.680;9.004;2023-04-03T08:21:24;5.80;99.90
10433;DHT22;5263;48.680;9.004;2023-04-03T08:23:50;5.90;99.90
10433;DHT22;5263;48.680;9.004;2023-04-03T08:26:19;5.50;99.90
10433;DHT22;5263;48.680;9.004;2023-04-03T08:28:46;5.50;99.90
10433;DHT22;5263;48.680;9.004;2023-04-03T08:31:15;5.80;99.90
10433;DHT22;5263;48.680;9.004;2023-04-03T08:33:42;5.90;99.90
10433;DHT22;5263;48.680;9.004;2023-04-03T08:36:20;6.30;99.90
10433;DHT22;5263;48.680;9.004;2023-04-03T08:38:46;5.90;99.90
10433;DHT22;5263;48.680;9.004;2023-04-03T08:41:34;5.60;99.90
10433;DHT22;5263;48.680;9.004;2023-04-03T08:50:02;5.60;99.90
10433;DHT22;5263;48.680;9.004;2023-04-03T08:52:39;6.00;99.90
10433;DHT22;5263;48.680;9.004;2023-04-03T08:57:40;6.40;99.90
10433;DHT22;5263;48.680;9.004;2023-04-03T09:02:48;6.50;99.90
10433;DHT22;5263;48.680;9.004;2023-04-03T09:05:51;6.50;99.90
10433;DHT22;5263;48.680;9.004;2023-04-03T09:13:34;6.60;99.90
10433;DHT22;5263;48.680;9.004;2023-04-03T09:16:05;6.20;99.90
10433;DHT22;5263;48.680;9.004;2023-04-03T09:18:45;6.50;99.90
10433;DHT22;5263;48.680;9.004;2023-04-03T09:21:20;6.40;99.90
10433;DHT22;5263;48.680;9.004;2023-04-03T09:23:50;6.60;99.90
10433;DHT22;5263;48.680;9.004;2023-04-03T09:26:25;6.40;99.90
10433;DHT22;5263;48.680;9.004;2023-04-03T09:28:55;5.80;99.90
10433;DHT22;5263;48.680;9.004;2023-04-03T09:31:24;5.60;99.90
10433;DHT22;5263;48.680;9.004;2023-04-03T09:33:54;5.80;99.90
10433;DHT22;5263;48.680;9.004;2023-04-03T09:36:46;6.40;99.90
10433;DHT22;5263;48.680;9.004;2023-04-03T09:39:18;6.40;99.90
10433;DHT22;5263;48.680;9.004;2023-04-03T09:42:11;6.50;99.90
10433;DHT22;5263;48.680;9.004;2023-04-03T09:44:38;5.80;99.90
10433;DHT22;5263;48.680;9.004;2023-04-03T09:47:39;5.80;99.90
10433;DHT22;5263;48.680;9.004;2023-04-03T09:52:39;5.30;99.90
10433;DHT22;5263;48.680;9.004;2023-04-03T09:55:07;5.30;99.90
10433;DHT22;5263;48.680;9.004;2023-04-03T09:57:33;4.80;99.90
10433;DHT22;5263;48.680;9.004;2023-04-03T10:00:01;5.10;99.90
10433;DHT22;5263;48.680;9.004;2023-04-03T10:02:40;5.00;99.90
10433;DHT22;5263;48.680;9.004;2023-04-03T10:05:34;5.10;99.90
10433;DHT22;5263;48.680;9.004;2023-04-03T10:10:41;5.10;99.90
10433;DHT22;5263;48.680;9.004;2023-04-03T10:13:19;5.50;99.90
10433;DHT22;5263;48.680;9.004;2023-04-03T10:15:51;5.60;99.90
10433;DHT22;5263;48.680;9.004;2023-04-03T10:21:46;5.90;99.90
10433;DHT22;5263;48.680;9.004;2023-04-03T10:35:20;7.10;99.90
10433;DHT22;5263;48.680;9.004;2023-04-03T10:43:54;7.70;99.90
10433;DHT22;5263;48.680;9.004;2023-04-03T10:46:37;7.40;99.90
10433;DHT22;5263;48.680;9.004;2023-04-03T10:52:07;6.50;99.90
10433;DHT22;5263;48.680;9.004;2023-04-03T10:54:38;6.30;99.90
10433;DHT22;5263;48.680;9.004;2023-04-03T10:57:09;6.30;99.90
10433;DHT22;5263;48.680;9.004;2023-04-03T10:59:50;6.90;99.90
10433;DHT22;5263;48.680;9.004;2023-04-03T11:02:54;7.10;99.90
10433;DHT22;5263;48.680;9.004;2023-04-03T11:05:45;7.20;99.90
10433;DHT22;5263;48.680;9.004;2023-04-03T11:11:07;6.50;99.90
10433;DHT22;5263;48.680;9.004;2023-04-03T11:13:41;5.80;99.90
10433;DHT22;5263;48.680;9.004;2023-04-03T11:16:08;6.00;99.90
10433;DHT22;5263;48.680;9.004;2023-04-03T11:18:54;5.90;99.90
10433;DHT22;5263;48.680;9.004;2023-04-03T11:21:34;5.80;99.90
10433;DHT22;5263;48.680;9.004;2023-04-03T11:24:05;6.00;99.90
10433;DHT22;5263;48.680;9.004;2023-04-03T11:26:40;6.00;99.90
10433;DHT22;5263;48.680;9.004;2023-04-03T11:29:11;6.30;99.90
10433;DHT22;5263;48.680;9.004;2023-04-03T11:34:39;6.30;99.90
10433;DHT22;5263;48.680;9.004;2023-04-03T11:37:39;6.30;99.90
10433;DHT22;5263;48.680;9.004;2023-04-03T11:42:38;6.00;99.90
10433;DHT22;5263;48.680;9.004;2023-04-03T11:53:26;5.70;99.90
10433;DHT22;5263;48.680;9.004;2023-04-03T11:55:57;5.70;99.90
10433;DHT22;5263;48.680;9.004;2023-04-03T11:58:26;5.70;99.90
10433;DHT22;5263;48.680;9.004;2023-04-03T12:00:58;5.60;99.90
10433;DHT22;5263;48.680;9.004;2023-04-03T12:13:37;5.40;99.90
10433;DHT22;5263;48.680;9.004;2023-04-03T12:16:05;5.80;99.90
10433;DHT22;5263;48.680;9.004;2023-04-03T12:21:16;5.70;99.90
10433;DHT22;5263;48.680;9.004;2023-04-03T12:26:48;6.40;99.90
10433;DHT22;5263;48.680;9.004;2023-04-03T12:32:26;6.70;99.90
10433;DHT22;5263;48.680;9.004;2023-04-03T12:35:06;6.70;99.90
10433;DHT22;5263;48.680;9.004;2023-04-03T12:40:43;6.20;99.90
10433;DHT22;5263;48.680;9.004;2023-04-03T12:43:23;6.20;99.90
10433;DHT22;5263;48.680;9.004;2023-04-03T12:46:04;6.10;99.90
10433;DHT22;5263;48.680;9.004;2023-04-03T12:48:32;6.10;99.90
10433;DHT22;5263;48.680;9.004;2023-04-03T12:51:00;5.80;99.90
10433;DHT22;5263;48.680;9.004;2023-04-03T12:53:28;5.60;99.90
10433;DHT22;5263;48.680;9.004;2023-04-03T12:56:25;5.50;99.90
10433;DHT22;5263;48.680;9.004;2023-04-03T12:59:12;5.70;99.90
10433;DHT22;5263;48.680;9.004;2023-04-03T13:01:38;5.70;99.90
10433;DHT22;5263;48.680;9.004;2023-04-03T13:04:04;6.20;99.90
10433;DHT22;5263;48.680;9.004;2023-04-03T13:06:48;6.60;99.90
10433;DHT22;5263;48.680;9.004;2023-04-03T13:09:29;6.70;99.90
10433;DHT22;5263;48.680;9.004;2023-04-03T13:12:13;6.30;99.90
10433;DHT22;5263;48.680;9.004;2023-04-03T13:14:40;7.00;99.90
10433;DHT22;5263;48.680;9.004;2023-04-03T13:17:16;7.60;99.90
10433;DHT22;5263;48.680;9.004;2023-04-03T13:19:44;8.00;99.90
10433;DHT22;5263;48.680;9.004;2023-04-03T13:22:33;8.50;99.90
10433;DHT22;5263;48.680;9.004;2023-04-03T13:25:06;8.10;99.90
10433;DHT22;5263;48.680;9.004;2023-04-03T13:27:32;7.20;99.90
10433;DHT22;5263;48.680;9.004;2023-04-03T13:30:00;7.10;99.90
10433;DHT22;5263;48.680;9.004;2023-04-03T13:32:28;7.00;99.90
10433;DHT22;5263;48.680;9.004;2023-04-03T13:34:54;7.70;99.90
10433;DHT22;5263;48.680;9.004;2023-04-03T13:39:46;7.30;99.90
10433;DHT22;5263;48.680;9.004;2023-04-03T13:42:40;7.90;99.90
10433;DHT22;5263;48.680;9.004;2023-04-03T13:45:20;7.80;99.90
10433;DHT22;5263;48.680;9.004;2023-04-03T13:47:48;7.90;99.90
10433;DHT22;5263;48.680;9.004;2023-04-03T13:50:19;7.80;99.90
10433;DHT22;5263;48.680;9.004;2023-04-03T13:53:03;7.60;99.90
10433;DHT22;5263;48.680;9.004;2023-04-03T13:55:39;8.40;99.90
10433;DHT22;5263;48.680;9.004;2023-04-03T13:58:22;9.10;99.90
10433;DHT22;5263;48.680;9.004;2023-04-03T14:03:57;8.60;99.90
10433;DHT22;5263;48.680;9.004;2023-04-03T14:06:24;7.90;99.90
10433;DHT22;5263;48.680;9.004;2023-04-03T14:08:50;7.10;99.90
10433;DHT22;5263;48.680;9.004;2023-04-03T14:11:24;7.10;99.90
10433;DHT22;5263;48.680;9.004;2023-04-03T14:13:52;6.90;99.90
10433;DHT22;5263;48.680;9.004;2023-04-03T14:16:22;6.80;99.90
10433;DHT22;5263;48.680;9.004;2023-04-03T14:18:49;7.00;99.90
10433;DHT22;5263;48.680;9.004;2023-04-03T14:21:17;6.60;99.90
10433;DHT22;5263;48.680;9.004;2023-04-03T14:23:42;6.60;99.90
10433;DHT22;5263;48.680;9.004;2023-04-03T14:26:14;6.90;99.90
10433;DHT22;5263;48.680;9.004;2023-04-03T14:28:42;7.40;99.90
10433;DHT22;5263;48.680;9.004;2023-04-03T14:31:10;7.00;99.90
10433;DHT22;5263;48.680;9.004;2023-04-03T14:33:36;7.00;99.90
10433;DHT22;5263;48.680;9.004;2023-04-03T14:38:37;7.30;99.90
10433;DHT22;5263;48.680;9.004;2023-04-03T14:41:03;7.20;99.90
10433;DHT22;5263;48.680;9.004;2023-04-03T14:43:28;7.10;99.90
10433;DHT22;5263;48.680;9.004;2023-04-03T14:45:54;6.90;99.90
10433;DHT22;5263;48.680;9.004;2023-04-03T14:48:25;6.60;99.90
10433;DHT22;5263;48.680;9.004;2023-04-03T14:50:52;6.30;99.90
10433;DHT22;5263;48.680;9.004;2023-04-03T14:53:19;6.10;99.90
10433;DHT22;5263;48.680;9.004;2023-04-03T14:55:48;6.30;99.90
10433;DHT22;5263;48.680;9.004;2023-04-03T14:58:16;6.10;99.90
10433;DHT22;5263;48.680;9.004;2023-04-03T15:00:43;6.10;99.90
10433;DHT22;5263;48.680;9.004;2023-04-03T15:03:21;6.20;99.90
10433;DHT22;5263;48.680;9.004;2023-04-03T15:05:49;6.30;99.90
10433;DHT22;5263;48.680;9.004;2023-04-03T15:08:19;6.40;99.90
10433;DHT22;5263;48.680;9.004;2023-04-03T15:10:45;6.30;99.90
10433;DHT22;5263;48.680;9.004;2023-04-03T15:13:12;6.20;99.90
10433;DHT22;5263;48.680;9.004;2023-04-03T15:15:37;6.40;99.90
10433;DHT22;5263;48.680;9.004;2023-04-03T15:18:03;6.40;99.90
10433;DHT22;5263;48.680;9.004;2023-04-03T15:20:30;6.60;99.90
10433;DHT22;5263;48.680;9.004;2023-04-03T15:22:58;8.80;99.90
10433;DHT22;5263;48.680;9.004;2023-04-03T15:25:26;10.30;99.10
10433;DHT22;5263;48.680;9.004;2023-04-03T15:27:53;10.30;98.10
10433;DHT22;5263;48.680;9.004;2023-04-03T15:30:20;11.00;96.80
10433;DHT22;5263;48.680;9.004;2023-04-03T15:32:46;10.80;95.30
10433;DHT22;5263;48.680;9.004;2023-04-03T15:35:12;10.00;94.50
10433;DHT22;5263;48.680;9.004;2023-04-03T15:37:38;8.60;96.40
10433;DHT22;5263;48.680;9.004;2023-04-03T15:40:05;8.10;98.70
10433;DHT22;5263;48.680;9.004;2023-04-03T15:42:31;7.90;99.40
10433;DHT22;5263;48.680;9.004;2023-04-03T15:44:57;7.90;99.70
10433;DHT22;5263;48.680;9.004;2023-04-03T15:47:24;7.50;98.90
10433;DHT22;5263;48.680;9.004;2023-04-03T15:49:50;7.20;99.10
10433;DHT22;5263;48.680;9.004;2023-04-03T15:52:15;7.20;99.10
10433;DHT22;5263;48.680;9.004;2023-04-03T15:54:41;6.50;99.90
10433;DHT22;5263;48.680;9.004;2023-04-03T15:57:06;6.70;99.90
10433;DHT22;5263;48.680;9.004;2023-04-03T15:59:32;7.00;99.90
10433;DHT22;5263;48.680;9.004;2023-04-03T16:01:59;6.90;99.90
10433;DHT22;5263;48.680;9.004;2023-04-03T16:04:27;6.90;99.90
10433;DHT22;5263;48.680;9.004;2023-04-03T16:06:53;6.90;99.90
10433;DHT22;5263;48.680;9.004;2023-04-03T16:09:19;7.00;99.20
10433;DHT22;5263;48.680;9.004;2023-04-03T16:11:44;7.00;99.30
10433;DHT22;5263;48.680;9.004;2023-04-03T16:14:10;6.80;99.00
10433;DHT22;5263;48.680;9.004;2023-04-03T16:16:36;6.90;99.20
10433;DHT22;5263;48.680;9.004;2023-04-03T16:19:03;6.80;99.10
10433;DHT22;5263;48.680;9.004;2023-04-03T16:21:29;6.40;99.20
10433;DHT22;5263;48.680;9.004;2023-04-03T16:23:57;6.20;99.60
10433;DHT22;5263;48.680;9.004;2023-04-03T16:26:23;6.20;99.60
10433;DHT22;5263;48.680;9.004;2023-04-03T16:28:49;6.10;99.50
10433;DHT22;5263;48.680;9.004;2023-04-03T16:31:15;6.10;99.50
10433;DHT22;5263;48.680;9.004;2023-04-03T16:33:41;5.80;99.90
10433;DHT22;5263;48.680;9.004;2023-04-03T16:36:06;5.90;99.90
10433;DHT22;5263;48.680;9.004;2023-04-03T16:38:33;5.60;99.90
10433;DHT22;5263;48.680;9.004;2023-04-03T16:40:58;5.50;99.90
10433;DHT22;5263;48.680;9.004;2023-04-03T16:43:29;5.70;99.90
10433;DHT22;5263;48.680;9.004;2023-04-03T16:45:55;5.90;99.90
10433;DHT22;5263;48.680;9.004;2023-04-03T16:48:21;6.10;99.90
10433;DHT22;5263;48.680;9.004;2023-04-03T16:50:48;6.00;99.90
10433;DHT22;5263;48.680;9.004;2023-04-03T16:53:14;5.90;99.90
10433;DHT22;5263;48.680;9.004;2023-04-03T16:55:40;6.00;99.90
10433;DHT22;5263;48.680;9.004;2023-04-03T16:58:06;5.90;99.90
10433;DHT22;5263;48.680;9.004;2023-04-03T17:00:32;5.70;99.90
10433;DHT22;5263;48.680;9.004;2023-04-03T17:02:59;5.50;99.80
10433;DHT22;5263;48.680;9.004;2023-04-03T17:05:25;5.40;99.50
10433;DHT22;5263;48.680;9.004;2023-04-03T17:07:50;5.40;99.90
10433;DHT22;5263;48.680;9.004;2023-04-03T17:10:16;5.50;99.90
10433;DHT22;5263;48.680;9.004;2023-04-03T17:12:42;5.60;99.90
10433;DHT22;5263;48.680;9.004;2023-04-03T17:15:08;5.40;99.90
10433;DHT22;5263;48.680;9.004;2023-04-03T17:17:34;5.00;99.90
10433;DHT22;5263;48.680;9.004;2023-04-03T17:20:00;4.70;99.90
10433;DHT22;5263;48.680;9.004;2023-04-03T17:22:26;4.70;99.90
10433;DHT22;5263;48.680;9.004;2023-04-03T17:24:52;4.80;99.90
10433;DHT22;5263;48.680;9.004;2023-04-03T17:27:18;4.80;99.90
10433;DHT22;5263;48.680;9.004;2023-04-03T17:29:43;4.80;99.90
10433;DHT22;5263;48.680;9.004;2023-04-03T17:32:09;4.70;99.90
10433;DHT22;5263;48.680;9.004;2023-04-03T17:34:35;4.80;99.90
10433;DHT22;5263;48.680;9.004;2023-04-03T17:37:01;4.70;99.90
10433;DHT22;5263;48.680;9.004;2023-04-03T17:39:27;4.90;99.90
10433;DHT22;5263;48.680;9.004;2023-04-03T17:41:53;4.70;99.90
10433;DHT22;5263;48.680;9.004;2023-04-03T17:44:20;4.70;99.90